createdAt,value
2019-01-23T00:01:59.035Z,-1.50
2019-01-23T00:04:29.721Z,-1.60
2019-01-23T00:07:00.976Z,-1.50
2019-01-23T00:09:31.384Z,-1.50
2019-01-23T00:12:01.750Z,-1.50
2019-01-23T00:14:32.065Z,-1.60
2019-01-23T00:17:02.369Z,-1.60
2019-01-23T00:19:32.852Z,-1.70
2019-01-23T00:22:03.179Z,-1.60
2019-01-23T00:24:33.589Z,-1.60
2019-01-23T00:27:03.921Z,-1.60
2019-01-23T00:29:34.217Z,-1.60
2019-01-23T00:32:04.591Z,-1.60
2019-01-23T00:34:34.970Z,-1.60
2019-01-23T00:37:05.360Z,-1.60
2019-01-23T00:39:35.644Z,-1.70
2019-01-23T00:42:06.073Z,-1.70
2019-01-23T00:44:40.824Z,-1.70
2019-01-23T00:47:11.199Z,-1.80
2019-01-23T00:49:41.670Z,-1.70
2019-01-23T00:52:12.245Z,-1.70
2019-01-23T00:54:42.483Z,-1.80
2019-01-23T00:57:12.825Z,-1.80
2019-01-23T00:59:43.119Z,-1.80
2019-01-23T01:02:13.467Z,-1.80
2019-01-23T01:04:43.778Z,-1.80
2019-01-23T01:07:14.057Z,-1.90
2019-01-23T01:09:44.397Z,-1.90
2019-01-23T01:12:14.943Z,-1.90
2019-01-23T01:14:45.296Z,-1.80
2019-01-23T01:17:15.637Z,-1.90
2019-01-23T01:19:46.170Z,-1.90
2019-01-23T01:22:16.394Z,-2.00
2019-01-23T01:24:47.035Z,-2.00
2019-01-23T01:27:17.328Z,-1.90
2019-01-23T01:29:47.599Z,-1.90
2019-01-23T01:32:18.239Z,-1.90
2019-01-23T01:34:49.018Z,-2.00
2019-01-23T01:37:20.119Z,-2.00
2019-01-23T01:39:50.422Z,-2.00
2019-01-23T01:42:20.807Z,-2.00
2019-01-23T01:44:51.545Z,-2.10
2019-01-23T01:47:21.871Z,-2.10
2019-01-23T01:49:52.227Z,-2.10
2019-01-23T01:52:22.578Z,-2.10
2019-01-23T01:54:52.844Z,-2.10
2019-01-23T01:57:23.172Z,-2.10
2019-01-23T01:59:53.392Z,-2.20
2019-01-23T02:02:24.242Z,-2.10
2019-01-23T02:04:54.572Z,-2.20
2019-01-23T02:07:24.933Z,-2.20
2019-01-23T02:09:55.252Z,-2.30
2019-01-23T02:12:25.597Z,-2.30
2019-01-23T02:14:55.895Z,-2.30
2019-01-23T02:17:26.475Z,-2.20
2019-01-23T02:19:57.082Z,-2.20
2019-01-23T02:22:27.662Z,-2.30
2019-01-23T02:24:57.953Z,-2.40
2019-01-23T02:27:28.377Z,-2.40
2019-01-23T02:29:58.508Z,-2.40
2019-01-23T02:32:28.877Z,-2.40
2019-01-23T02:34:59.288Z,-2.40
2019-01-23T02:37:29.686Z,-2.40
2019-01-23T02:40:00.343Z,-2.40
2019-01-23T02:42:30.816Z,-2.40
2019-01-23T02:45:01.149Z,-2.40
2019-01-23T02:47:31.737Z,-2.40
2019-01-23T02:50:02.575Z,-2.50
2019-01-23T02:52:32.932Z,-2.50
2019-01-23T02:55:03.232Z,-2.50
2019-01-23T02:57:33.648Z,-2.50
2019-01-23T03:00:04.935Z,-2.50
2019-01-23T03:02:35.919Z,-2.50
2019-01-23T03:05:09.449Z,-2.50
2019-01-23T03:07:39.773Z,-2.50
2019-01-23T03:10:14.167Z,-2.50
2019-01-23T03:12:44.486Z,-2.60
2019-01-23T03:15:15.422Z,-2.60
2019-01-23T03:17:45.767Z,-2.60
2019-01-23T03:20:18.266Z,-2.60
2019-01-23T03:22:48.855Z,-2.70
2019-01-23T03:25:19.279Z,-2.70
2019-01-23T03:27:49.824Z,-2.60
2019-01-23T03:30:24.756Z,-2.70
2019-01-23T03:32:55.063Z,-2.70
2019-01-23T03:35:25.584Z,-2.60
2019-01-23T03:37:55.871Z,-2.60
2019-01-23T03:40:26.168Z,-2.70
2019-01-23T03:42:56.516Z,-2.70
2019-01-23T03:45:27.208Z,-2.80
2019-01-23T03:47:57.506Z,-2.70
2019-01-23T03:50:27.879Z,-2.70
2019-01-23T03:52:58.336Z,-2.80
2019-01-23T03:55:28.606Z,-2.70
2019-01-23T03:57:59.199Z,-2.70
2019-01-23T04:00:29.531Z,-2.70
2019-01-23T04:02:59.834Z,-2.70
2019-01-23T04:05:31.119Z,-2.70
2019-01-23T04:08:01.586Z,-2.80
2019-01-23T04:10:31.960Z,-2.80
2019-01-23T04:13:02.366Z,-2.80
2019-01-23T04:15:32.643Z,-2.80
2019-01-23T04:18:03.028Z,-2.80
2019-01-23T04:20:33.499Z,-2.80
2019-01-23T04:23:03.758Z,-2.80
2019-01-23T04:25:34.193Z,-2.80
2019-01-23T04:28:05.077Z,-2.80
2019-01-23T04:30:35.850Z,-2.90
2019-01-23T04:33:06.312Z,-2.90
2019-01-23T04:35:36.883Z,-2.90
2019-01-23T04:38:07.461Z,-2.90
2019-01-23T04:40:37.722Z,-2.90
2019-01-23T04:43:08.223Z,-2.80
2019-01-23T04:45:38.507Z,-2.80
2019-01-23T04:48:08.910Z,-2.80
2019-01-23T04:50:57.109Z,-2.80
2019-01-23T04:53:34.602Z,-2.80
2019-01-23T04:56:04.905Z,-2.80
2019-01-23T04:58:35.558Z,-2.80
2019-01-23T05:01:05.988Z,-2.80
2019-01-23T05:03:36.287Z,-2.80
2019-01-23T05:06:06.878Z,-2.80
2019-01-23T05:08:37.619Z,-2.80
2019-01-23T05:11:07.947Z,-2.90
2019-01-23T05:13:38.354Z,-2.90
2019-01-23T05:16:09.832Z,-2.90
2019-01-23T05:18:40.158Z,-2.90
2019-01-23T05:21:10.564Z,-2.90
2019-01-23T05:23:40.810Z,-2.90
2019-01-23T05:26:11.133Z,-2.90
2019-01-23T05:28:41.483Z,-2.90
2019-01-23T05:31:11.791Z,-2.80
2019-01-23T05:33:42.084Z,-2.80
2019-01-23T05:36:13.079Z,-2.90
2019-01-23T05:38:43.352Z,-2.90
2019-01-23T05:41:13.727Z,-2.90
2019-01-23T05:43:44.154Z,-2.90
2019-01-23T05:46:15.592Z,-2.90
2019-01-23T05:48:45.842Z,-2.80
2019-01-23T05:51:16.300Z,-2.90
2019-01-23T05:53:46.634Z,-2.80
2019-01-23T05:56:16.953Z,-2.80
2019-01-23T05:58:48.036Z,-2.80
2019-01-23T06:01:18.444Z,-2.90
2019-01-23T06:03:48.715Z,-2.80
2019-01-23T06:06:19.201Z,-2.90
2019-01-23T06:08:49.785Z,-2.80
2019-01-23T06:11:20.088Z,-2.80
2019-01-23T06:13:50.440Z,-2.80
2019-01-23T06:16:21.023Z,-2.90
2019-01-23T06:18:51.314Z,-2.90
2019-01-23T06:21:21.686Z,-2.80
2019-01-23T06:23:52.013Z,-2.80
2019-01-23T06:26:22.280Z,-2.80
2019-01-23T06:28:52.538Z,-2.80
2019-01-23T06:31:22.780Z,-2.80
2019-01-23T06:33:53.169Z,-2.80
2019-01-23T06:36:23.562Z,-2.80
2019-01-23T06:38:53.901Z,-2.80
2019-01-23T06:41:24.220Z,-2.80
2019-01-23T06:43:54.980Z,-2.90
2019-01-23T06:46:25.276Z,-2.90
2019-01-23T06:48:55.632Z,-2.90
2019-01-23T06:51:26.093Z,-2.90
2019-01-23T06:53:56.845Z,-2.90
2019-01-23T06:56:27.167Z,-2.90
2019-01-23T06:58:58.027Z,-2.90
2019-01-23T07:01:28.300Z,-2.90
2019-01-23T07:03:58.541Z,-2.90
2019-01-23T07:06:28.887Z,-2.90
2019-01-23T07:08:59.208Z,-3.00
2019-01-23T07:11:29.470Z,-3.00
2019-01-23T07:13:59.839Z,-3.00
2019-01-23T07:16:30.373Z,-3.00
2019-01-23T07:19:00.688Z,-3.00
2019-01-23T07:21:32.147Z,-3.00
2019-01-23T07:24:02.441Z,-3.00
2019-01-23T07:26:32.764Z,-3.10
2019-01-23T07:29:03.113Z,-3.10
2019-01-23T07:31:33.313Z,-3.00
2019-01-23T07:34:03.651Z,-3.10
2019-01-23T07:36:33.934Z,-3.10
2019-01-23T07:39:06.757Z,-3.10
2019-01-23T07:41:37.426Z,-3.10
2019-01-23T07:44:08.292Z,-3.10
2019-01-23T07:46:38.918Z,-3.10
2019-01-23T07:49:09.271Z,-3.10
2019-01-23T07:51:39.546Z,-3.10
2019-01-23T07:54:09.824Z,-3.20
2019-01-23T07:56:40.129Z,-3.20
2019-01-23T07:59:10.446Z,-3.10
2019-01-23T08:01:40.787Z,-3.20
2019-01-23T08:04:11.089Z,-3.10
2019-01-23T08:06:41.656Z,-3.10
2019-01-23T08:09:13.571Z,-3.10
2019-01-23T08:11:43.895Z,-3.00
2019-01-23T08:14:14.168Z,-3.00
2019-01-23T08:16:44.415Z,-3.10
2019-01-23T08:19:14.799Z,-3.10
2019-01-23T08:21:46.219Z,-3.10
2019-01-23T08:24:16.486Z,-3.10
2019-01-23T08:26:46.883Z,-3.10
2019-01-23T08:29:17.291Z,-3.00
2019-01-23T08:31:47.565Z,-3.10
2019-01-23T08:34:17.815Z,-3.00
2019-01-23T08:36:48.096Z,-3.00
2019-01-23T08:39:18.364Z,-3.10
2019-01-23T08:41:48.786Z,-3.10
2019-01-23T08:44:19.076Z,-3.10
2019-01-23T08:46:49.353Z,-3.10
2019-01-23T08:49:19.685Z,-3.10
2019-01-23T08:51:49.960Z,-3.10
2019-01-23T08:54:20.155Z,-3.10
2019-01-23T08:56:51.023Z,-3.10
2019-01-23T08:59:21.303Z,-3.00
2019-01-23T09:01:51.878Z,-3.10
2019-01-23T09:04:22.524Z,-3.00
2019-01-23T09:06:53.063Z,-3.00
2019-01-23T09:09:23.335Z,-3.00
2019-01-23T09:11:54.554Z,-3.00
2019-01-23T09:14:24.792Z,-3.10
2019-01-23T09:16:55.087Z,-3.00
2019-01-23T09:19:25.412Z,-3.00
2019-01-23T09:21:55.669Z,-3.00
2019-01-23T09:24:26.176Z,-3.10
2019-01-23T09:26:56.542Z,-3.20
2019-01-23T09:29:26.852Z,-3.10
2019-01-23T09:32:43.458Z,-3.10
2019-01-23T09:36:23.318Z,-3.20
2019-01-23T09:40:18.251Z,-3.20
2019-01-23T09:43:26.942Z,-3.30
2019-01-23T09:46:45.616Z,-3.20
2019-01-23T09:49:56.459Z,-3.10
2019-01-23T09:53:05.306Z,-3.10
2019-01-23T09:55:36.080Z,-3.10
2019-01-23T09:58:09.984Z,-3.20
2019-01-23T10:00:40.339Z,-3.10
2019-01-23T10:03:10.571Z,-3.10
2019-01-23T10:05:41.009Z,-3.10
2019-01-23T10:08:11.371Z,-3.20
2019-01-23T10:10:41.655Z,-3.20
2019-01-23T10:13:12.209Z,-3.10
2019-01-23T10:16:20.313Z,-3.00
2019-01-23T10:18:55.968Z,-3.00
2019-01-23T10:21:22.772Z,-2.90
2019-01-23T10:23:53.094Z,-2.80
2019-01-23T10:26:23.332Z,-2.90
2019-01-23T10:28:53.648Z,-2.80
2019-01-23T10:31:24.108Z,-2.80
2019-01-23T10:33:54.459Z,-2.80
2019-01-23T10:36:24.717Z,-2.70
2019-01-23T10:38:55.038Z,-2.70
2019-01-23T10:41:25.245Z,-2.80
2019-01-23T10:43:55.553Z,-2.70
2019-01-23T10:46:25.909Z,-2.70
2019-01-23T10:48:56.184Z,-2.60
2019-01-23T10:51:26.485Z,-2.50
2019-01-23T10:53:56.820Z,-2.40
2019-01-23T10:56:27.229Z,-2.30
2019-01-23T10:58:57.542Z,-2.20
2019-01-23T11:01:27.857Z,-2.20
2019-01-23T11:03:58.168Z,-2.20
2019-01-23T11:06:28.437Z,-2.20
2019-01-23T11:08:58.756Z,-2.20
2019-01-23T11:11:29.119Z,-2.20
2019-01-23T11:13:59.448Z,-2.10
2019-01-23T11:16:30.158Z,-2.00
2019-01-23T11:19:00.433Z,-2.00
2019-01-23T11:21:30.771Z,-1.90
2019-01-23T11:24:01.237Z,-1.80
2019-01-23T11:26:31.857Z,-1.80
2019-01-23T11:29:02.158Z,-1.80
2019-01-23T11:31:32.491Z,-1.70
2019-01-23T11:34:02.894Z,-1.70
2019-01-23T11:36:33.432Z,-1.70
2019-01-23T11:39:05.516Z,-1.70
2019-01-23T11:41:35.782Z,-1.70
2019-01-23T11:44:06.198Z,-1.70
2019-01-23T11:46:36.637Z,-1.70
2019-01-23T11:49:06.937Z,-1.60
2019-01-23T11:51:37.250Z,-1.60
2019-01-23T11:54:07.591Z,-1.60
2019-01-23T11:56:37.872Z,-1.60
2019-01-23T11:59:08.122Z,-1.60
2019-01-23T12:01:38.537Z,-1.60
2019-01-23T12:04:08.842Z,-1.60
2019-01-23T12:06:39.598Z,-1.60
2019-01-23T12:09:11.096Z,-1.60
2019-01-23T12:11:41.438Z,-1.50
2019-01-23T12:14:11.720Z,-1.50
2019-01-23T12:16:42.221Z,-1.60
2019-01-23T12:19:12.793Z,-1.60
2019-01-23T12:21:43.064Z,-1.60
2019-01-23T12:24:13.415Z,-1.60
2019-01-23T12:26:43.673Z,-1.50
2019-01-23T12:29:14.137Z,-1.60
2019-01-23T12:31:44.808Z,-1.60
2019-01-23T12:34:15.153Z,-1.70
2019-01-23T12:36:45.823Z,-1.60
2019-01-23T12:39:16.159Z,-1.50
2019-01-23T12:41:46.765Z,-1.50
2019-01-23T12:44:17.616Z,-1.50
2019-01-23T12:46:48.484Z,-1.60
2019-01-23T12:49:18.870Z,-1.70
2019-01-23T12:51:49.226Z,-1.60
2019-01-23T12:54:19.877Z,-1.60
2019-01-23T12:56:50.190Z,-1.70
2019-01-23T12:59:20.531Z,-1.70
2019-01-23T13:01:50.731Z,-1.60
2019-01-23T13:04:21.348Z,-1.60
2019-01-23T13:06:51.668Z,-1.60
2019-01-23T13:09:21.910Z,-1.60
2019-01-23T13:11:53.311Z,-1.60
2019-01-23T13:14:23.604Z,-1.70
2019-01-23T13:16:54.155Z,-1.60
2019-01-23T13:19:24.499Z,-1.60
2019-01-23T13:21:54.779Z,-1.60
2019-01-23T13:24:25.067Z,-1.50
2019-01-23T13:26:55.311Z,-1.40
2019-01-23T13:29:25.638Z,-1.40
2019-01-23T13:31:55.879Z,-1.50
2019-01-23T13:34:26.198Z,-1.50
2019-01-23T13:36:56.478Z,-1.50
2019-01-23T13:39:26.784Z,-1.60
2019-01-23T13:41:57.094Z,-1.70
2019-01-23T13:44:27.389Z,-1.60
2019-01-23T13:46:57.700Z,-1.60
2019-01-23T13:49:27.960Z,-1.60
2019-01-23T13:51:58.284Z,-1.60
2019-01-23T13:54:28.608Z,-1.50
2019-01-23T13:56:58.972Z,-1.70
2019-01-23T13:59:29.226Z,-1.70
2019-01-23T14:01:59.530Z,-1.70
2019-01-23T14:04:29.840Z,-1.70
2019-01-23T14:07:00.131Z,-1.60
2019-01-23T14:09:30.425Z,-1.70
2019-01-23T14:12:00.997Z,-1.70
2019-01-23T14:14:31.279Z,-1.70
2019-01-23T14:17:01.522Z,-1.70
2019-01-23T14:19:31.971Z,-1.70
2019-01-23T14:22:02.255Z,-1.70
2019-01-23T14:24:32.494Z,-1.80
2019-01-23T14:27:02.835Z,-1.80
2019-01-23T14:29:33.161Z,-1.70
2019-01-23T14:32:03.752Z,-1.70
2019-01-23T14:34:34.184Z,-1.70
2019-01-23T14:37:04.535Z,-1.80
2019-01-23T14:39:35.320Z,-1.70
2019-01-23T14:42:05.843Z,-1.70
2019-01-23T14:44:36.243Z,-1.70
2019-01-23T14:47:07.300Z,-1.70
2019-01-23T14:49:37.783Z,-1.80
2019-01-23T14:52:08.192Z,-1.80
2019-01-23T14:54:38.486Z,-1.80
2019-01-23T14:57:08.829Z,-1.80
2019-01-23T14:59:39.091Z,-1.80
2019-01-23T15:02:10.325Z,-1.80
2019-01-23T15:04:41.159Z,-1.80
2019-01-23T15:07:11.436Z,-1.90
2019-01-23T15:09:41.705Z,-1.80
2019-01-23T15:12:12.072Z,-1.90
2019-01-23T15:14:42.314Z,-1.90
2019-01-23T15:17:12.606Z,-1.90
2019-01-23T15:19:42.857Z,-1.90
2019-01-23T15:22:13.184Z,-1.90
2019-01-23T15:24:43.491Z,-1.90
2019-01-23T15:27:13.842Z,-1.80
2019-01-23T15:29:44.467Z,-1.80
2019-01-23T15:32:17.330Z,-1.90
2019-01-23T15:34:47.293Z,-1.90
2019-01-23T15:37:17.607Z,-1.90
2019-01-23T15:39:49.241Z,-1.90
2019-01-23T15:42:19.669Z,-2.00
2019-01-23T15:44:50.183Z,-2.10
2019-01-23T15:47:20.684Z,-2.00
2019-01-23T15:49:50.961Z,-2.10
2019-01-23T15:52:21.280Z,-2.00
2019-01-23T15:54:51.668Z,-2.00
2019-01-23T15:57:21.960Z,-2.10
2019-01-23T15:59:52.230Z,-2.10
2019-01-23T16:02:24.449Z,-2.10
2019-01-23T16:04:54.568Z,-2.10
2019-01-23T16:07:25.167Z,-2.10
2019-01-23T16:09:57.818Z,-2.10
2019-01-23T16:12:28.372Z,-2.10
2019-01-23T16:14:59.238Z,-2.20
2019-01-23T16:17:29.569Z,-2.20
2019-01-23T16:20:00.110Z,-2.20
2019-01-23T16:22:30.411Z,-2.30
2019-01-23T16:25:01.875Z,-2.20
2019-01-23T16:27:32.588Z,-2.20
2019-01-23T16:30:02.853Z,-2.20
2019-01-23T16:32:33.191Z,-2.20
2019-01-23T16:35:03.548Z,-2.10
2019-01-23T16:37:34.044Z,-2.20
2019-01-23T16:40:05.542Z,-2.10
2019-01-23T16:42:35.919Z,-2.20
2019-01-23T16:45:08.063Z,-2.20
2019-01-23T16:47:38.353Z,-2.20
2019-01-23T16:50:16.599Z,-2.10
2019-01-23T16:52:46.917Z,-2.10
2019-01-23T16:55:17.356Z,-2.10
2019-01-23T16:57:49.103Z,-2.10
2019-01-23T17:00:23.576Z,-2.10
2019-01-23T17:02:54.140Z,-2.20
2019-01-23T17:05:28.823Z,-2.20
2019-01-23T17:08:01.441Z,-2.20
2019-01-23T17:10:31.908Z,-2.20
2019-01-23T17:13:02.795Z,-2.20
2019-01-23T17:15:33.933Z,-2.30
2019-01-23T17:18:04.235Z,-2.20
2019-01-23T17:20:41.507Z,-2.20
2019-01-23T17:23:11.763Z,-2.20
2019-01-23T17:25:42.055Z,-2.20
2019-01-23T17:28:13.659Z,-2.20
2019-01-23T17:30:44.245Z,-2.10
2019-01-23T17:33:14.526Z,-2.10
2019-01-23T17:35:45.197Z,-2.20
2019-01-23T17:38:15.444Z,-2.20
2019-01-23T17:40:45.807Z,-2.20
2019-01-23T17:43:16.439Z,-2.30
2019-01-23T17:45:46.816Z,-2.30
2019-01-23T17:48:17.103Z,-2.30
2019-01-23T17:50:52.346Z,-2.30
2019-01-23T17:53:24.979Z,-2.30
2019-01-23T17:55:55.278Z,-2.30
2019-01-23T17:58:25.600Z,-2.40
2019-01-23T18:00:57.636Z,-2.40
2019-01-23T18:03:27.940Z,-2.40
2019-01-23T18:05:58.251Z,-2.40
2019-01-23T18:08:28.558Z,-2.40
2019-01-23T18:10:58.890Z,-2.40
2019-01-23T18:13:29.502Z,-2.40
2019-01-23T18:16:10.871Z,-2.40
2019-01-23T18:18:41.267Z,-2.50
2019-01-23T18:21:11.510Z,-2.50
2019-01-23T18:23:41.819Z,-2.50
2019-01-23T18:26:12.162Z,-2.50
2019-01-23T18:28:42.448Z,-2.50
2019-01-23T18:31:50.153Z,-2.50
2019-01-23T18:35:03.427Z,-2.50
2019-01-23T18:38:17.815Z,-2.50
2019-01-23T18:41:56.595Z,-2.50
2019-01-23T18:45:01.129Z,-2.50
2019-01-23T18:48:17.162Z,-2.50
2019-01-23T18:51:46.556Z,-2.50
2019-01-23T18:54:16.862Z,-2.50
2019-01-23T18:56:47.186Z,-2.50
2019-01-23T18:59:18.067Z,-2.50
2019-01-23T19:01:48.681Z,-2.50
2019-01-23T19:04:18.979Z,-2.50
2019-01-23T19:06:49.335Z,-2.50
2019-01-23T19:09:19.594Z,-2.50
2019-01-23T19:11:49.861Z,-2.50
2019-01-23T19:14:24.433Z,-2.60
2019-01-23T19:16:52.293Z,-2.60
2019-01-23T19:19:22.764Z,-2.50
2019-01-23T19:21:55.180Z,-2.50
2019-01-23T19:24:25.083Z,-2.50
2019-01-23T19:26:55.660Z,-2.50
2019-01-23T19:29:25.979Z,-2.50
2019-01-23T19:31:56.258Z,-2.50
2019-01-23T19:34:26.555Z,-2.50
2019-01-23T19:36:56.819Z,-2.40
2019-01-23T19:39:27.143Z,-2.50
2019-01-23T19:41:57.891Z,-2.40
2019-01-23T19:44:28.424Z,-2.40
2019-01-23T19:46:58.781Z,-2.50
2019-01-23T19:49:29.322Z,-2.50
2019-01-23T19:51:59.622Z,-2.40
2019-01-23T19:54:29.891Z,-2.40
2019-01-23T19:57:00.255Z,-2.40
2019-01-23T19:59:30.528Z,-2.50
2019-01-23T20:02:00.777Z,-2.50
2019-01-23T20:04:31.278Z,-2.50
2019-01-23T20:07:01.542Z,-2.40
2019-01-23T20:09:31.861Z,-2.40
2019-01-23T20:12:02.331Z,-2.40
2019-01-23T20:14:32.655Z,-2.40
2019-01-23T20:17:02.875Z,-2.40
2019-01-23T20:19:33.288Z,-2.40
2019-01-23T20:22:03.594Z,-2.40
2019-01-23T20:24:33.924Z,-2.40
2019-01-23T20:27:04.299Z,-2.40
2019-01-23T20:29:34.937Z,-2.40
2019-01-23T20:32:06.615Z,-2.40
2019-01-23T20:34:37.295Z,-2.40
2019-01-23T20:37:07.620Z,-2.50
2019-01-23T20:39:37.893Z,-2.50
2019-01-23T20:42:08.256Z,-2.50
2019-01-23T20:44:38.567Z,-2.50
2019-01-23T20:47:08.873Z,-2.50
2019-01-23T20:49:39.212Z,-2.50
2019-01-23T20:52:09.623Z,-2.50
2019-01-23T20:54:39.898Z,-2.50
2019-01-23T20:57:10.341Z,-2.50
2019-01-23T20:59:40.617Z,-2.60
2019-01-23T21:02:11.275Z,-2.60
2019-01-23T21:04:41.722Z,-2.60
2019-01-23T21:07:12.050Z,-2.60
2019-01-23T21:09:42.310Z,-2.60
2019-01-23T21:12:18.597Z,-2.60
2019-01-23T21:14:44.743Z,-2.60
2019-01-23T21:17:15.048Z,-2.70
2019-01-23T21:19:45.412Z,-2.70
2019-01-23T21:22:15.762Z,-2.70
2019-01-23T21:24:46.098Z,-2.70
2019-01-23T21:27:16.462Z,-2.70
2019-01-23T21:29:46.742Z,-2.70
2019-01-23T21:32:16.993Z,-2.70
2019-01-23T21:34:47.573Z,-2.70
2019-01-23T21:37:17.738Z,-2.60
2019-01-23T21:39:47.903Z,-2.60
2019-01-23T21:42:18.278Z,-2.60
2019-01-23T21:44:51.617Z,-2.60
2019-01-23T21:47:21.899Z,-2.60
2019-01-23T21:49:52.364Z,-2.60
2019-01-23T21:52:22.678Z,-2.60
2019-01-23T21:54:52.966Z,-2.60
2019-01-23T21:57:23.304Z,-2.60
2019-01-23T21:59:53.801Z,-2.70
2019-01-23T22:02:24.193Z,-2.60
2019-01-23T22:04:54.525Z,-2.60
2019-01-23T22:07:24.782Z,-2.60
2019-01-23T22:09:55.046Z,-2.60
2019-01-23T22:12:25.573Z,-2.60
2019-01-23T22:14:55.917Z,-2.60
2019-01-23T22:17:26.197Z,-2.60
2019-01-23T22:19:56.858Z,-2.60
2019-01-23T22:22:27.152Z,-2.50
2019-01-23T22:24:57.449Z,-2.50
2019-01-23T22:27:27.789Z,-2.50
2019-01-23T22:29:58.122Z,-2.50
2019-01-23T22:32:28.377Z,-2.60
2019-01-23T22:34:58.983Z,-2.60
2019-01-23T22:37:29.306Z,-2.60
2019-01-23T22:39:59.603Z,-2.60
2019-01-23T22:42:29.908Z,-2.60
2019-01-23T22:45:00.206Z,-2.60
2019-01-23T22:47:30.554Z,-2.60
2019-01-23T22:50:00.861Z,-2.60
2019-01-23T22:52:31.303Z,-2.60
2019-01-23T22:55:01.614Z,-2.50
2019-01-23T22:57:31.961Z,-2.60
2019-01-23T23:00:02.315Z,-2.50
2019-01-23T23:02:32.699Z,-2.70
2019-01-23T23:05:03.070Z,-2.70
2019-01-23T23:07:33.418Z,-2.70
2019-01-23T23:10:03.788Z,-2.70
2019-01-23T23:12:34.354Z,-2.70
2019-01-23T23:15:05.524Z,-2.70
2019-01-23T23:17:35.831Z,-2.70
2019-01-23T23:20:06.856Z,-2.60
2019-01-23T23:22:37.722Z,-2.70
2019-01-23T23:25:08.452Z,-2.70
2019-01-23T23:27:39.535Z,-2.70
2019-01-23T23:30:12.660Z,-2.70
2019-01-23T23:32:43.241Z,-2.60
2019-01-23T23:35:13.572Z,-2.70
2019-01-23T23:37:43.878Z,-2.70
2019-01-23T23:40:14.429Z,-2.60
2019-01-23T23:42:44.962Z,-2.70
2019-01-23T23:45:16.341Z,-2.60
2019-01-23T23:47:47.137Z,-2.60
2019-01-23T23:50:17.620Z,-2.50
2019-01-23T23:52:48.437Z,-2.50
2019-01-23T23:55:19.365Z,-2.50
2019-01-23T23:57:49.908Z,-2.50
